Terminal Aerodrome Forecast
Issued by NWS

Home | Current Version | Previous Version | Text Only | Print | Product List | Glossary On
Versions: 1 2 3 4 5 6 7 8 9 10 11 12 13 14 15 16 17 18 19 20 21 22 23 24 25 26 27 28 29 30 31
000
FTUS44 KLIX 251725
TAFHDC
TAF
KHDC 251725Z 2518/2618 10007KT P6SM VCTS SCT030CB BKN060
      TEMPO 2519/2523 VRB25KT 2SM TSRA BKN030CB
     FM260000 14005KT P6SM SCT050 BKN200
     FM261100 00000KT P6SM SCT025 BKN110
     FM261500 VRB03KT P6SM SCT025 BKN090=

USA.gov is the U.S. government's official web portal to all federal, state and local government web resources and services.